Ana Sayfa
METAR-TAF:

METAR-TAF

Havaalanları :

Lubbock, Teksas, Amerika Birleşik Devletleri

Enlem: 33-40-03N, Boylam: 101-49-17W, yükseklik: 1000 m

Güncel hava durumu gözlemi

Rapor saat 10:53 UTC de 55 dakika önce yapıldı.
Rüzgar kuzeybatıdan 4 kt
Sıcaklık 23°C
Nem 57%
Basınç 1010 hPa
Görüş mesafesi: 16.1 km
25000 ft yükseklikte parçalı çok bulutlu

METAR: KLBB 161053Z 32004KT 10SM BKN250 23/14 A2983 RMK AO2 SLP041 T02280139

Saat: 06:48 (11:48 UTC)

Tahmin

Rapor saat 11:20 UTC de 28 dakika önce yapıldı.
Ayın 16'si saat 12 UTC'den ayın 17'si saat 12 UTC'ye kadar geçerli Tahmin
Rüzgar güney/güneydoğudan 10 kt
Görüş mesafesi: 10 km
Açık gökyüzü
Ayın 16'si saat 1500 UTC'den
Rüzgar güneydan 18 kt ve 27 kt'a kadar ani rüzgarlar
Görüş mesafesi: 10 km
25000 ft yükseklikte parçalı bulutlu

TAF: KLBB 161120Z 1612/1712 16010KT P6SM SKC FM161500 18018G27KT P6SM SCT250

4.000'den fazla havaalanı için hava durumu gözlemleri ve tahminleri (METAR ve TAF raporları).

Kullanılabilir istasyonlar harita üzerinde sarı ve kırmızı noktalarla gösterilir.

İstasyonun adını görmek için fareyi noktanın üzerinde gezdirin.

Sonrasında hava gözlem ve tahminlerini görmek için tıklayın.

Haritayı değiştirmek için: yaklaştırmak için siyah artı işaretli yeşil düğmeye ve uzaklaştırmak için de eksi işaretli düğmeye hızla tıklayın; bitişik haritalar için yeşil okları kullanın.


METAR-TAF: